sensor_id;sensor_type;location;lat;lon;timestamp;temperature;humidity
16247;DHT22;8231;50.866;7.944;2023-11-19T00:00:12;8.50;99.90
16247;DHT22;8231;50.866;7.944;2023-11-19T00:02:41;8.50;99.90
16247;DHT22;8231;50.866;7.944;2023-11-19T00:05:11;8.50;99.90
16247;DHT22;8231;50.866;7.944;2023-11-19T00:07:40;8.50;99.90
16247;DHT22;8231;50.866;7.944;2023-11-19T00:10:09;8.60;99.90
16247;DHT22;8231;50.866;7.944;2023-11-19T00:12:38;8.60;99.90
16247;DHT22;8231;50.866;7.944;2023-11-19T00:15:07;8.60;99.90
16247;DHT22;8231;50.866;7.944;2023-11-19T00:17:38;8.70;99.90
16247;DHT22;8231;50.866;7.944;2023-11-19T00:20:13;8.70;99.90
16247;DHT22;8231;50.866;7.944;2023-11-19T00:22:42;8.70;99.90
16247;DHT22;8231;50.866;7.944;2023-11-19T00:25:13;8.70;99.90
16247;DHT22;8231;50.866;7.944;2023-11-19T00:27:42;8.70;99.90
16247;DHT22;8231;50.866;7.944;2023-11-19T00:30:11;8.70;99.90
16247;DHT22;8231;50.866;7.944;2023-11-19T00:32:41;8.70;99.90
16247;DHT22;8231;50.866;7.944;2023-11-19T00:35:10;8.70;99.90
16247;DHT22;8231;50.866;7.944;2023-11-19T00:37:39;8.80;99.90
16247;DHT22;8231;50.866;7.944;2023-11-19T00:40:10;8.90;99.90
16247;DHT22;8231;50.866;7.944;2023-11-19T00:42:38;8.90;99.90
16247;DHT22;8231;50.866;7.944;2023-11-19T00:45:07;8.90;99.90
16247;DHT22;8231;50.866;7.944;2023-11-19T00:47:38;8.90;99.90
16247;DHT22;8231;50.866;7.944;2023-11-19T00:50:07;9.00;99.90
16247;DHT22;8231;50.866;7.944;2023-11-19T00:52:38;9.00;99.90
16247;DHT22;8231;50.866;7.944;2023-11-19T00:55:07;9.00;99.90
16247;DHT22;8231;50.866;7.944;2023-11-19T00:57:36;9.00;99.90
16247;DHT22;8231;50.866;7.944;2023-11-19T01:00:07;9.00;99.90
16247;DHT22;8231;50.866;7.944;2023-11-19T01:02:48;9.10;99.90
16247;DHT22;8231;50.866;7.944;2023-11-19T01:05:18;9.10;99.90
16247;DHT22;8231;50.866;7.944;2023-11-19T01:07:51;9.20;99.90
16247;DHT22;8231;50.866;7.944;2023-11-19T01:10:21;9.20;99.90
16247;DHT22;8231;50.866;7.944;2023-11-19T01:12:50;9.20;99.90
16247;DHT22;8231;50.866;7.944;2023-11-19T01:15:19;9.30;99.90
16247;DHT22;8231;50.866;7.944;2023-11-19T01:17:47;9.20;99.90
16247;DHT22;8231;50.866;7.944;2023-11-19T01:20:19;9.30;99.90
16247;DHT22;8231;50.866;7.944;2023-11-19T01:22:50;9.30;99.90
16247;DHT22;8231;50.866;7.944;2023-11-19T01:25:18;9.20;99.90
16247;DHT22;8231;50.866;7.944;2023-11-19T01:27:48;9.20;99.90
16247;DHT22;8231;50.866;7.944;2023-11-19T01:30:17;9.20;99.90
16247;DHT22;8231;50.866;7.944;2023-11-19T01:32:48;9.30;99.90
16247;DHT22;8231;50.866;7.944;2023-11-19T01:35:17;9.30;99.90
16247;DHT22;8231;50.866;7.944;2023-11-19T01:37:45;9.30;99.90
16247;DHT22;8231;50.866;7.944;2023-11-19T01:40:15;9.40;99.90
16247;DHT22;8231;50.866;7.944;2023-11-19T01:42:44;9.40;99.90
16247;DHT22;8231;50.866;7.944;2023-11-19T01:45:22;9.70;99.90
16247;DHT22;8231;50.866;7.944;2023-11-19T01:47:55;9.40;99.90
16247;DHT22;8231;50.866;7.944;2023-11-19T01:50:23;9.40;99.90
16247;DHT22;8231;50.866;7.944;2023-11-19T01:52:53;9.40;99.90
16247;DHT22;8231;50.866;7.944;2023-11-19T01:55:24;9.40;99.90
16247;DHT22;8231;50.866;7.944;2023-11-19T01:57:58;9.40;99.90
16247;DHT22;8231;50.866;7.944;2023-11-19T02:00:27;9.50;99.90
16247;DHT22;8231;50.866;7.944;2023-11-19T02:02:55;9.50;99.90
16247;DHT22;8231;50.866;7.944;2023-11-19T02:05:24;9.40;99.90
16247;DHT22;8231;50.866;7.944;2023-11-19T02:07:54;9.50;99.90
16247;DHT22;8231;50.866;7.944;2023-11-19T02:10:23;9.50;99.90
16247;DHT22;8231;50.866;7.944;2023-11-19T02:12:52;9.50;99.90
16247;DHT22;8231;50.866;7.944;2023-11-19T02:15:32;9.50;99.90
16247;DHT22;8231;50.866;7.944;2023-11-19T02:18:28;9.60;99.90
16247;DHT22;8231;50.866;7.944;2023-11-19T02:20:58;9.70;99.90
16247;DHT22;8231;50.866;7.944;2023-11-19T02:23:27;9.80;99.90
16247;DHT22;8231;50.866;7.944;2023-11-19T02:26:13;9.80;99.90
16247;DHT22;8231;50.866;7.944;2023-11-19T02:28:44;9.70;99.90
16247;DHT22;8231;50.866;7.944;2023-11-19T02:31:12;9.80;99.90
16247;DHT22;8231;50.866;7.944;2023-11-19T02:33:41;9.80;99.90
16247;DHT22;8231;50.866;7.944;2023-11-19T02:36:10;9.90;99.90
16247;DHT22;8231;50.866;7.944;2023-11-19T02:38:38;9.70;99.90
16247;DHT22;8231;50.866;7.944;2023-11-19T02:41:06;9.80;99.90
16247;DHT22;8231;50.866;7.944;2023-11-19T02:43:37;9.80;99.90
16247;DHT22;8231;50.866;7.944;2023-11-19T02:46:07;9.90;99.90
16247;DHT22;8231;50.866;7.944;2023-11-19T02:48:38;9.90;99.90
16247;DHT22;8231;50.866;7.944;2023-11-19T02:51:07;10.00;99.90
16247;DHT22;8231;50.866;7.944;2023-11-19T02:53:36;10.20;99.90
16247;DHT22;8231;50.866;7.944;2023-11-19T02:56:08;10.00;99.90
16247;DHT22;8231;50.866;7.944;2023-11-19T02:58:46;10.00;99.90
16247;DHT22;8231;50.866;7.944;2023-11-19T03:01:23;10.10;99.90
16247;DHT22;8231;50.866;7.944;2023-11-19T03:03:58;10.10;99.90
16247;DHT22;8231;50.866;7.944;2023-11-19T03:06:29;10.10;99.90
16247;DHT22;8231;50.866;7.944;2023-11-19T03:08:57;10.10;99.90
16247;DHT22;8231;50.866;7.944;2023-11-19T03:11:26;10.20;99.90
16247;DHT22;8231;50.866;7.944;2023-11-19T03:13:54;10.40;99.90
16247;DHT22;8231;50.866;7.944;2023-11-19T03:16:23;10.10;99.90
16247;DHT22;8231;50.866;7.944;2023-11-19T03:18:51;10.20;99.90
16247;DHT22;8231;50.866;7.944;2023-11-19T03:21:21;10.10;99.90
16247;DHT22;8231;50.866;7.944;2023-11-19T03:23:54;10.10;99.90
16247;DHT22;8231;50.866;7.944;2023-11-19T03:26:23;10.20;99.90
16247;DHT22;8231;50.866;7.944;2023-11-19T03:28:51;10.20;99.90
16247;DHT22;8231;50.866;7.944;2023-11-19T03:31:19;10.20;99.90
16247;DHT22;8231;50.866;7.944;2023-11-19T03:33:49;10.20;99.90
16247;DHT22;8231;50.866;7.944;2023-11-19T03:36:17;10.20;99.90
16247;DHT22;8231;50.866;7.944;2023-11-19T03:38:45;10.20;99.90
16247;DHT22;8231;50.866;7.944;2023-11-19T03:41:14;10.20;99.90
16247;DHT22;8231;50.866;7.944;2023-11-19T03:43:44;10.20;99.90
16247;DHT22;8231;50.866;7.944;2023-11-19T03:46:18;10.20;99.90
16247;DHT22;8231;50.866;7.944;2023-11-19T03:48:48;10.20;99.90
16247;DHT22;8231;50.866;7.944;2023-11-19T03:51:17;10.20;99.90
16247;DHT22;8231;50.866;7.944;2023-11-19T03:53:45;10.20;99.90
16247;DHT22;8231;50.866;7.944;2023-11-19T03:56:14;10.20;99.90
16247;DHT22;8231;50.866;7.944;2023-11-19T03:58:43;10.20;99.90
16247;DHT22;8231;50.866;7.944;2023-11-19T04:01:11;10.30;99.90
16247;DHT22;8231;50.866;7.944;2023-11-19T04:03:41;10.20;99.90
16247;DHT22;8231;50.866;7.944;2023-11-19T04:06:13;10.30;99.90
16247;DHT22;8231;50.866;7.944;2023-11-19T04:08:41;10.20;99.90
16247;DHT22;8231;50.866;7.944;2023-11-19T04:11:10;10.50;99.90
16247;DHT22;8231;50.866;7.944;2023-11-19T04:13:38;10.20;99.90
16247;DHT22;8231;50.866;7.944;2023-11-19T04:16:07;10.20;99.90
16247;DHT22;8231;50.866;7.944;2023-11-19T04:18:36;10.30;99.90
16247;DHT22;8231;50.866;7.944;2023-11-19T04:21:06;10.30;99.90
16247;DHT22;8231;50.866;7.944;2023-11-19T04:23:36;10.30;99.90
16247;DHT22;8231;50.866;7.944;2023-11-19T04:26:04;10.50;99.90
16247;DHT22;8231;50.866;7.944;2023-11-19T04:28:36;10.30;99.90
16247;DHT22;8231;50.866;7.944;2023-11-19T04:31:04;10.30;99.90
16247;DHT22;8231;50.866;7.944;2023-11-19T04:33:33;10.50;99.90
16247;DHT22;8231;50.866;7.944;2023-11-19T04:36:02;10.40;99.90
16247;DHT22;8231;50.866;7.944;2023-11-19T04:38:30;10.40;99.90
16247;DHT22;8231;50.866;7.944;2023-11-19T04:40:59;10.30;99.90
16247;DHT22;8231;50.866;7.944;2023-11-19T04:43:28;10.40;99.90
16247;DHT22;8231;50.866;7.944;2023-11-19T04:45:57;10.40;99.90
16247;DHT22;8231;50.866;7.944;2023-11-19T04:48:25;10.40;99.90
16247;DHT22;8231;50.866;7.944;2023-11-19T04:50:53;10.40;99.90
16247;DHT22;8231;50.866;7.944;2023-11-19T04:53:21;10.40;99.90
16247;DHT22;8231;50.866;7.944;2023-11-19T04:55:50;10.50;99.90
16247;DHT22;8231;50.866;7.944;2023-11-19T04:58:19;10.50;99.90
16247;DHT22;8231;50.866;7.944;2023-11-19T05:00:47;10.50;99.90
16247;DHT22;8231;50.866;7.944;2023-11-19T05:03:15;10.40;99.90
16247;DHT22;8231;50.866;7.944;2023-11-19T05:05:44;10.40;99.90
16247;DHT22;8231;50.866;7.944;2023-11-19T05:08:12;10.70;99.90
16247;DHT22;8231;50.866;7.944;2023-11-19T05:10:41;10.50;99.90
16247;DHT22;8231;50.866;7.944;2023-11-19T05:13:09;10.40;99.90
16247;DHT22;8231;50.866;7.944;2023-11-19T05:15:38;10.40;99.90
16247;DHT22;8231;50.866;7.944;2023-11-19T05:18:07;10.40;99.90
16247;DHT22;8231;50.866;7.944;2023-11-19T05:20:35;10.40;99.90
16247;DHT22;8231;50.866;7.944;2023-11-19T05:23:03;10.50;99.90
16247;DHT22;8231;50.866;7.944;2023-11-19T05:25:32;10.40;99.90
16247;DHT22;8231;50.866;7.944;2023-11-19T05:28:00;10.40;99.90
16247;DHT22;8231;50.866;7.944;2023-11-19T05:30:28;10.40;99.90
16247;DHT22;8231;50.866;7.944;2023-11-19T05:32:57;10.60;99.90
16247;DHT22;8231;50.866;7.944;2023-11-19T05:35:26;10.60;99.90
16247;DHT22;8231;50.866;7.944;2023-11-19T05:37:54;10.50;99.90
16247;DHT22;8231;50.866;7.944;2023-11-19T05:40:22;10.50;99.90
16247;DHT22;8231;50.866;7.944;2023-11-19T05:42:51;10.40;99.90
16247;DHT22;8231;50.866;7.944;2023-11-19T05:45:19;10.40;99.90
16247;DHT22;8231;50.866;7.944;2023-11-19T05:47:47;10.40;99.90
16247;DHT22;8231;50.866;7.944;2023-11-19T05:50:17;10.40;99.90
16247;DHT22;8231;50.866;7.944;2023-11-19T05:52:45;10.40;99.90
16247;DHT22;8231;50.866;7.944;2023-11-19T05:55:13;10.40;99.90
16247;DHT22;8231;50.866;7.944;2023-11-19T05:57:42;10.50;99.90
16247;DHT22;8231;50.866;7.944;2023-11-19T06:00:13;10.50;99.90
16247;DHT22;8231;50.866;7.944;2023-11-19T06:02:42;10.50;99.90
16247;DHT22;8231;50.866;7.944;2023-11-19T06:05:11;10.50;99.90
16247;DHT22;8231;50.866;7.944;2023-11-19T06:07:41;10.50;99.90
16247;DHT22;8231;50.866;7.944;2023-11-19T06:10:10;10.50;99.90
16247;DHT22;8231;50.866;7.944;2023-11-19T06:12:39;10.40;99.90
16247;DHT22;8231;50.866;7.944;2023-11-19T06:15:09;10.40;99.90
16247;DHT22;8231;50.866;7.944;2023-11-19T06:17:37;10.40;99.90
16247;DHT22;8231;50.866;7.944;2023-11-19T06:20:06;10.40;99.90
16247;DHT22;8231;50.866;7.944;2023-11-19T06:22:35;10.40;99.90
16247;DHT22;8231;50.866;7.944;2023-11-19T06:25:06;10.40;99.90
16247;DHT22;8231;50.866;7.944;2023-11-19T06:27:35;10.40;99.90
16247;DHT22;8231;50.866;7.944;2023-11-19T06:30:03;10.40;99.90
16247;DHT22;8231;50.866;7.944;2023-11-19T06:32:33;10.30;99.90
16247;DHT22;8231;50.866;7.944;2023-11-19T06:35:01;10.30;99.90
16247;DHT22;8231;50.866;7.944;2023-11-19T06:37:31;10.30;99.90
16247;DHT22;8231;50.866;7.944;2023-11-19T06:40:01;10.30;99.90
16247;DHT22;8231;50.866;7.944;2023-11-19T06:42:33;10.40;99.90
16247;DHT22;8231;50.866;7.944;2023-11-19T06:45:01;10.30;99.90
16247;DHT22;8231;50.866;7.944;2023-11-19T06:47:30;10.30;99.90
16247;DHT22;8231;50.866;7.944;2023-11-19T06:49:58;10.30;99.90
16247;DHT22;8231;50.866;7.944;2023-11-19T06:52:27;10.30;99.90
16247;DHT22;8231;50.866;7.944;2023-11-19T06:54:56;10.30;99.90
16247;DHT22;8231;50.866;7.944;2023-11-19T06:57:27;10.30;99.90
16247;DHT22;8231;50.866;7.944;2023-11-19T06:59:58;10.30;99.90
16247;DHT22;8231;50.866;7.944;2023-11-19T07:02:26;10.30;99.90
16247;DHT22;8231;50.866;7.944;2023-11-19T07:04:55;10.30;99.90
16247;DHT22;8231;50.866;7.944;2023-11-19T07:07:23;10.50;99.90
16247;DHT22;8231;50.866;7.944;2023-11-19T07:09:52;10.30;99.90
16247;DHT22;8231;50.866;7.944;2023-11-19T07:12:21;10.40;99.90
16247;DHT22;8231;50.866;7.944;2023-11-19T07:14:49;10.60;99.90
16247;DHT22;8231;50.866;7.944;2023-11-19T07:17:20;10.40;99.90
16247;DHT22;8231;50.866;7.944;2023-11-19T07:19:50;10.50;99.90
16247;DHT22;8231;50.866;7.944;2023-11-19T07:22:18;10.40;99.90
16247;DHT22;8231;50.866;7.944;2023-11-19T07:24:47;10.40;99.90
16247;DHT22;8231;50.866;7.944;2023-11-19T07:27:15;10.40;99.90
16247;DHT22;8231;50.866;7.944;2023-11-19T07:29:44;10.40;99.90
16247;DHT22;8231;50.866;7.944;2023-11-19T07:32:13;10.50;99.90
16247;DHT22;8231;50.866;7.944;2023-11-19T07:34:42;10.40;99.90
16247;DHT22;8231;50.866;7.944;2023-11-19T07:37:12;10.30;99.90
16247;DHT22;8231;50.866;7.944;2023-11-19T07:39:40;10.40;99.90
16247;DHT22;8231;50.866;7.944;2023-11-19T07:42:09;10.30;99.90
16247;DHT22;8231;50.866;7.944;2023-11-19T07:44:37;10.30;99.90
16247;DHT22;8231;50.866;7.944;2023-11-19T07:47:05;10.30;99.90
16247;DHT22;8231;50.866;7.944;2023-11-19T07:49:33;10.30;99.90
16247;DHT22;8231;50.866;7.944;2023-11-19T07:52:03;10.20;99.90
16247;DHT22;8231;50.866;7.944;2023-11-19T07:54:47;10.20;99.90
16247;DHT22;8231;50.866;7.944;2023-11-19T07:57:16;10.30;99.90
16247;DHT22;8231;50.866;7.944;2023-11-19T07:59:44;10.20;99.90
16247;DHT22;8231;50.866;7.944;2023-11-19T08:02:13;10.30;99.90
16247;DHT22;8231;50.866;7.944;2023-11-19T08:04:41;10.20;99.90
16247;DHT22;8231;50.866;7.944;2023-11-19T08:07:14;10.20;99.90
16247;DHT22;8231;50.866;7.944;2023-11-19T08:09:43;10.20;99.90
16247;DHT22;8231;50.866;7.944;2023-11-19T08:12:11;10.10;99.90
16247;DHT22;8231;50.866;7.944;2023-11-19T08:14:41;10.20;99.90
16247;DHT22;8231;50.866;7.944;2023-11-19T08:17:10;10.30;99.90
16247;DHT22;8231;50.866;7.944;2023-11-19T08:19:38;10.30;99.90
16247;DHT22;8231;50.866;7.944;2023-11-19T08:22:06;10.40;99.90
16247;DHT22;8231;50.866;7.944;2023-11-19T08:24:37;10.40;99.90
16247;DHT22;8231;50.866;7.944;2023-11-19T08:27:05;10.40;99.90
16247;DHT22;8231;50.866;7.944;2023-11-19T08:29:33;10.50;99.90
16247;DHT22;8231;50.866;7.944;2023-11-19T08:32:03;10.40;99.90
16247;DHT22;8231;50.866;7.944;2023-11-19T08:34:31;10.50;99.90
16247;DHT22;8231;50.866;7.944;2023-11-19T08:36:59;10.60;99.90
16247;DHT22;8231;50.866;7.944;2023-11-19T08:39:27;10.60;99.90
16247;DHT22;8231;50.866;7.944;2023-11-19T08:41:58;10.60;99.90
16247;DHT22;8231;50.866;7.944;2023-11-19T08:44:26;10.60;99.90
16247;DHT22;8231;50.866;7.944;2023-11-19T08:46:55;10.60;99.90
16247;DHT22;8231;50.866;7.944;2023-11-19T08:49:23;10.60;99.90
16247;DHT22;8231;50.866;7.944;2023-11-19T08:51:51;10.60;99.90
16247;DHT22;8231;50.866;7.944;2023-11-19T08:54:20;10.60;99.90
16247;DHT22;8231;50.866;7.944;2023-11-19T08:56:49;10.60;99.90
16247;DHT22;8231;50.866;7.944;2023-11-19T08:59:19;10.50;99.90
16247;DHT22;8231;50.866;7.944;2023-11-19T09:01:47;10.50;99.90
16247;DHT22;8231;50.866;7.944;2023-11-19T09:04:15;10.60;99.90
16247;DHT22;8231;50.866;7.944;2023-11-19T09:06:44;10.60;99.90
16247;DHT22;8231;50.866;7.944;2023-11-19T09:09:12;10.60;99.90
16247;DHT22;8231;50.866;7.944;2023-11-19T09:11:41;10.60;99.90
16247;DHT22;8231;50.866;7.944;2023-11-19T09:14:09;10.70;99.90
16247;DHT22;8231;50.866;7.944;2023-11-19T09:16:38;10.70;99.90
16247;DHT22;8231;50.866;7.944;2023-11-19T09:19:06;10.80;99.90
16247;DHT22;8231;50.866;7.944;2023-11-19T09:21:35;10.90;99.90
16247;DHT22;8231;50.866;7.944;2023-11-19T09:24:05;10.90;99.90
16247;DHT22;8231;50.866;7.944;2023-11-19T09:26:34;10.90;99.90
16247;DHT22;8231;50.866;7.944;2023-11-19T09:29:04;10.90;99.90
16247;DHT22;8231;50.866;7.944;2023-11-19T09:31:32;11.00;99.90
16247;DHT22;8231;50.866;7.944;2023-11-19T09:34:02;11.00;99.90
16247;DHT22;8231;50.866;7.944;2023-11-19T09:36:30;11.00;99.90
16247;DHT22;8231;50.866;7.944;2023-11-19T09:38:58;11.00;99.90
16247;DHT22;8231;50.866;7.944;2023-11-19T09:41:30;11.10;99.90
16247;DHT22;8231;50.866;7.944;2023-11-19T09:43:58;11.10;99.90
16247;DHT22;8231;50.866;7.944;2023-11-19T09:46:26;11.10;99.90
16247;DHT22;8231;50.866;7.944;2023-11-19T09:48:57;11.30;99.90
16247;DHT22;8231;50.866;7.944;2023-11-19T09:51:27;11.60;99.90
16247;DHT22;8231;50.866;7.944;2023-11-19T09:53:56;11.70;99.90
16247;DHT22;8231;50.866;7.944;2023-11-19T09:56:24;11.70;99.90
16247;DHT22;8231;50.866;7.944;2023-11-19T09:58:53;11.80;99.90
16247;DHT22;8231;50.866;7.944;2023-11-19T10:01:22;12.00;99.90
16247;DHT22;8231;50.866;7.944;2023-11-19T10:03:55;12.00;99.90
16247;DHT22;8231;50.866;7.944;2023-11-19T10:06:25;12.10;99.90
16247;DHT22;8231;50.866;7.944;2023-11-19T10:08:55;12.20;99.90
16247;DHT22;8231;50.866;7.944;2023-11-19T10:11:24;12.30;99.90
16247;DHT22;8231;50.866;7.944;2023-11-19T10:13:53;12.30;99.90
16247;DHT22;8231;50.866;7.944;2023-11-19T10:16:28;12.40;99.90
16247;DHT22;8231;50.866;7.944;2023-11-19T10:18:57;12.30;99.90
16247;DHT22;8231;50.866;7.944;2023-11-19T10:21:25;12.20;99.90
16247;DHT22;8231;50.866;7.944;2023-11-19T10:23:56;12.20;99.90
16247;DHT22;8231;50.866;7.944;2023-11-19T10:26:28;12.20;99.90
16247;DHT22;8231;50.866;7.944;2023-11-19T10:28:56;12.20;99.90
16247;DHT22;8231;50.866;7.944;2023-11-19T10:31:24;12.10;99.90
16247;DHT22;8231;50.866;7.944;2023-11-19T10:33:53;12.10;99.90
16247;DHT22;8231;50.866;7.944;2023-11-19T10:36:22;12.20;99.90
16247;DHT22;8231;50.866;7.944;2023-11-19T10:38:52;12.30;99.90
16247;DHT22;8231;50.866;7.944;2023-11-19T10:41:31;12.40;99.90
16247;DHT22;8231;50.866;7.944;2023-11-19T10:44:00;12.50;99.90
16247;DHT22;8231;50.866;7.944;2023-11-19T10:46:38;12.70;99.90
16247;DHT22;8231;50.866;7.944;2023-11-19T10:49:08;12.60;99.90
16247;DHT22;8231;50.866;7.944;2023-11-19T10:51:36;12.60;99.90
16247;DHT22;8231;50.866;7.944;2023-11-19T10:54:08;12.60;99.90
16247;DHT22;8231;50.866;7.944;2023-11-19T10:56:39;12.60;99.90
16247;DHT22;8231;50.866;7.944;2023-11-19T10:59:08;12.60;99.90
16247;DHT22;8231;50.866;7.944;2023-11-19T11:01:44;12.60;99.90
16247;DHT22;8231;50.866;7.944;2023-11-19T11:04:14;12.60;99.90
16247;DHT22;8231;50.866;7.944;2023-11-19T11:06:43;12.50;99.90
16247;DHT22;8231;50.866;7.944;2023-11-19T11:09:11;12.50;99.90
16247;DHT22;8231;50.866;7.944;2023-11-19T11:11:47;12.50;99.90
16247;DHT22;8231;50.866;7.944;2023-11-19T11:14:16;12.50;99.90
16247;DHT22;8231;50.866;7.944;2023-11-19T11:16:48;12.50;99.90
16247;DHT22;8231;50.866;7.944;2023-11-19T11:19:17;12.60;99.90
16247;DHT22;8231;50.866;7.944;2023-11-19T11:21:49;12.70;99.90
16247;DHT22;8231;50.866;7.944;2023-11-19T11:24:41;12.90;99.90
16247;DHT22;8231;50.866;7.944;2023-11-19T11:27:40;13.10;99.90
16247;DHT22;8231;50.866;7.944;2023-11-19T11:30:25;13.10;99.90
16247;DHT22;8231;50.866;7.944;2023-11-19T11:33:06;13.10;99.90
16247;DHT22;8231;50.866;7.944;2023-11-19T11:35:51;13.10;99.90
16247;DHT22;8231;50.866;7.944;2023-11-19T11:38:22;13.00;99.90
16247;DHT22;8231;50.866;7.944;2023-11-19T11:41:16;12.90;99.90
16247;DHT22;8231;50.866;7.944;2023-11-19T11:43:49;12.90;99.90
16247;DHT22;8231;50.866;7.944;2023-11-19T11:49:31;12.90;99.90
16247;DHT22;8231;50.866;7.944;2023-11-19T11:52:03;12.90;99.90
16247;DHT22;8231;50.866;7.944;2023-11-19T11:54:32;12.80;99.90
16247;DHT22;8231;50.866;7.944;2023-11-19T11:57:03;12.80;99.90
16247;DHT22;8231;50.866;7.944;2023-11-19T11:59:43;12.80;99.90
16247;DHT22;8231;50.866;7.944;2023-11-19T12:02:12;12.70;99.90
16247;DHT22;8231;50.866;7.944;2023-11-19T12:04:41;12.60;99.90
16247;DHT22;8231;50.866;7.944;2023-11-19T12:07:13;12.60;99.90
16247;DHT22;8231;50.866;7.944;2023-11-19T12:09:42;12.70;99.90
16247;DHT22;8231;50.866;7.944;2023-11-19T12:12:21;12.90;99.90
16247;DHT22;8231;50.866;7.944;2023-11-19T12:15:06;12.80;99.90
16247;DHT22;8231;50.866;7.944;2023-11-19T12:17:46;12.70;99.90
16247;DHT22;8231;50.866;7.944;2023-11-19T12:20:19;12.90;99.90
16247;DHT22;8231;50.866;7.944;2023-11-19T12:22:52;12.90;99.90
16247;DHT22;8231;50.866;7.944;2023-11-19T12:25:20;12.90;99.90
16247;DHT22;8231;50.866;7.944;2023-11-19T12:27:50;12.90;99.90
16247;DHT22;8231;50.866;7.944;2023-11-19T12:30:23;12.80;99.90
16247;DHT22;8231;50.866;7.944;2023-11-19T12:32:54;12.70;99.90
16247;DHT22;8231;50.866;7.944;2023-11-19T12:35:23;12.50;99.90
16247;DHT22;8231;50.866;7.944;2023-11-19T12:37:52;12.50;99.90
16247;DHT22;8231;50.866;7.944;2023-11-19T12:40:22;12.50;99.90
16247;DHT22;8231;50.866;7.944;2023-11-19T12:42:52;12.50;99.90
16247;DHT22;8231;50.866;7.944;2023-11-19T12:45:23;12.40;99.90
16247;DHT22;8231;50.866;7.944;2023-11-19T12:48:04;12.10;99.90
16247;DHT22;8231;50.866;7.944;2023-11-19T12:50:50;12.00;99.90
16247;DHT22;8231;50.866;7.944;2023-11-19T12:53:19;12.00;99.90
16247;DHT22;8231;50.866;7.944;2023-11-19T12:55:48;12.00;99.90
16247;DHT22;8231;50.866;7.944;2023-11-19T12:58:29;12.10;99.90
16247;DHT22;8231;50.866;7.944;2023-11-19T13:01:04;12.20;99.90
16247;DHT22;8231;50.866;7.944;2023-11-19T13:03:34;12.20;99.90
16247;DHT22;8231;50.866;7.944;2023-11-19T13:06:03;12.30;99.90
16247;DHT22;8231;50.866;7.944;2023-11-19T13:08:36;12.10;99.90
16247;DHT22;8231;50.866;7.944;2023-11-19T13:11:06;12.10;99.90
16247;DHT22;8231;50.866;7.944;2023-11-19T13:13:55;12.10;99.90
16247;DHT22;8231;50.866;7.944;2023-11-19T13:16:25;12.20;99.90
16247;DHT22;8231;50.866;7.944;2023-11-19T13:18:54;12.20;99.90
16247;DHT22;8231;50.866;7.944;2023-11-19T13:21:24;12.20;99.90
16247;DHT22;8231;50.866;7.944;2023-11-19T13:23:53;12.20;99.90
16247;DHT22;8231;50.866;7.944;2023-11-19T13:26:21;12.20;99.90
16247;DHT22;8231;50.866;7.944;2023-11-19T13:28:50;12.50;99.90
16247;DHT22;8231;50.866;7.944;2023-11-19T13:31:18;12.60;99.90
16247;DHT22;8231;50.866;7.944;2023-11-19T13:33:48;12.60;99.90
16247;DHT22;8231;50.866;7.944;2023-11-19T13:36:17;12.30;99.90
16247;DHT22;8231;50.866;7.944;2023-11-19T13:38:45;12.30;99.90
16247;DHT22;8231;50.866;7.944;2023-11-19T13:41:16;12.30;99.90
16247;DHT22;8231;50.866;7.944;2023-11-19T13:43:44;12.20;99.90
16247;DHT22;8231;50.866;7.944;2023-11-19T13:46:13;12.20;99.90
16247;DHT22;8231;50.866;7.944;2023-11-19T13:48:42;12.10;99.90
16247;DHT22;8231;50.866;7.944;2023-11-19T13:51:12;12.10;99.90
16247;DHT22;8231;50.866;7.944;2023-11-19T13:53:40;11.90;99.90
16247;DHT22;8231;50.866;7.944;2023-11-19T13:56:11;11.90;99.90
16247;DHT22;8231;50.866;7.944;2023-11-19T13:58:39;11.80;99.90
16247;DHT22;8231;50.866;7.944;2023-11-19T14:01:08;11.70;99.90
16247;DHT22;8231;50.866;7.944;2023-11-19T14:03:36;11.60;99.90
16247;DHT22;8231;50.866;7.944;2023-11-19T14:06:05;11.60;99.90
16247;DHT22;8231;50.866;7.944;2023-11-19T14:08:36;11.60;99.90
16247;DHT22;8231;50.866;7.944;2023-11-19T14:11:05;12.00;99.90
16247;DHT22;8231;50.866;7.944;2023-11-19T14:13:34;12.80;99.90
16247;DHT22;8231;50.866;7.944;2023-11-19T14:16:03;13.10;99.90
16247;DHT22;8231;50.866;7.944;2023-11-19T14:18:33;13.10;99.90
16247;DHT22;8231;50.866;7.944;2023-11-19T14:21:03;13.10;99.90
16247;DHT22;8231;50.866;7.944;2023-11-19T14:23:31;12.90;99.90
16247;DHT22;8231;50.866;7.944;2023-11-19T14:26:01;12.70;99.90
16247;DHT22;8231;50.866;7.944;2023-11-19T14:28:30;12.60;99.90
16247;DHT22;8231;50.866;7.944;2023-11-19T14:30:58;12.40;99.90
16247;DHT22;8231;50.866;7.944;2023-11-19T14:33:27;12.30;99.90
16247;DHT22;8231;50.866;7.944;2023-11-19T14:35:55;12.00;99.90
16247;DHT22;8231;50.866;7.944;2023-11-19T14:38:24;11.80;99.90
16247;DHT22;8231;50.866;7.944;2023-11-19T14:40:52;11.80;99.90
16247;DHT22;8231;50.866;7.944;2023-11-19T14:43:23;11.70;99.90
16247;DHT22;8231;50.866;7.944;2023-11-19T14:45:52;11.70;99.90
16247;DHT22;8231;50.866;7.944;2023-11-19T14:48:22;11.80;99.90
16247;DHT22;8231;50.866;7.944;2023-11-19T14:50:51;11.60;99.90
16247;DHT22;8231;50.866;7.944;2023-11-19T14:53:19;11.60;99.90
16247;DHT22;8231;50.866;7.944;2023-11-19T14:55:48;11.50;99.90
16247;DHT22;8231;50.866;7.944;2023-11-19T14:58:16;11.50;99.90
16247;DHT22;8231;50.866;7.944;2023-11-19T15:00:46;11.40;99.90
16247;DHT22;8231;50.866;7.944;2023-11-19T15:03:14;11.40;99.90
16247;DHT22;8231;50.866;7.944;2023-11-19T15:05:46;11.30;99.90
16247;DHT22;8231;50.866;7.944;2023-11-19T15:08:15;11.30;99.90
16247;DHT22;8231;50.866;7.944;2023-11-19T15:10:43;11.30;99.90
16247;DHT22;8231;50.866;7.944;2023-11-19T15:13:13;11.20;99.90
16247;DHT22;8231;50.866;7.944;2023-11-19T15:15:42;11.20;99.90
16247;DHT22;8231;50.866;7.944;2023-11-19T15:18:12;11.30;99.90
16247;DHT22;8231;50.866;7.944;2023-11-19T15:20:41;11.10;99.90
16247;DHT22;8231;50.866;7.944;2023-11-19T15:23:09;11.10;99.90
16247;DHT22;8231;50.866;7.944;2023-11-19T15:25:38;11.20;99.90
16247;DHT22;8231;50.866;7.944;2023-11-19T15:28:06;11.10;99.90
16247;DHT22;8231;50.866;7.944;2023-11-19T15:30:35;11.10;99.90
16247;DHT22;8231;50.866;7.944;2023-11-19T15:33:03;11.10;99.90
16247;DHT22;8231;50.866;7.944;2023-11-19T15:35:33;11.00;99.90
16247;DHT22;8231;50.866;7.944;2023-11-19T15:38:01;10.90;99.90
16247;DHT22;8231;50.866;7.944;2023-11-19T15:40:30;10.90;99.90
16247;DHT22;8231;50.866;7.944;2023-11-19T15:42:58;10.90;99.90
16247;DHT22;8231;50.866;7.944;2023-11-19T15:45:28;10.90;99.90
16247;DHT22;8231;50.866;7.944;2023-11-19T15:47:56;10.80;99.90
16247;DHT22;8231;50.866;7.944;2023-11-19T15:50:25;10.80;99.90
16247;DHT22;8231;50.866;7.944;2023-11-19T15:52:58;10.80;99.90
16247;DHT22;8231;50.866;7.944;2023-11-19T15:55:28;10.80;99.90
16247;DHT22;8231;50.866;7.944;2023-11-19T15:57:57;10.80;99.90
16247;DHT22;8231;50.866;7.944;2023-11-19T16:00:26;10.80;99.90
16247;DHT22;8231;50.866;7.944;2023-11-19T16:02:54;10.80;99.90
16247;DHT22;8231;50.866;7.944;2023-11-19T16:05:23;10.80;99.90
16247;DHT22;8231;50.866;7.944;2023-11-19T16:07:52;10.80;99.90
16247;DHT22;8231;50.866;7.944;2023-11-19T16:10:21;10.80;99.90